Details From CYFB - Iqaluit
To CYYR - Goose Bay
Flight Number -
Tags decoded
Created
Modified
Stats Distance 675 nm / 1,251 km
Max Altitude 0 ft / 0 m
Waypoints 2
Social Downloads 5
Likes 1
Share VATSIM

Download

Looking for another format? Having issues loading an existing format? Contact us
Advertisement - Login to hide

Notes

Requested: CYFB CYYR

Route

CYFB CYYR

ID Type Via Altitude Latitude Longitude Leg Dist Tot Dist Heading (true) Name
O CYFB APT - 0 ft / 0 m 63.75657˚ -68.55606˚ - 0 nm - Iqaluit
O CYYR APT - 0 ft / 0 m 53.31882˚ -60.42389˚ 675 nm 675 nm 154° / 161° Goose Bay

Altitude Profile

Advertisement - Login to hide

Weather


0- 5 10 15 20 25 30 35+ Temperature / ° C

Clouds and Precipitation
Forecast for 2017-12-12 18:00 UTC. Updated an hour ago

Ground ~20,000 ft ~40,000 ft Winds

CYFB

Details ICAO CYFB (YFB)
Name Iqaluit
Region Canada
Timezone America/Iqaluit (UTC-5.0)
Stats Elevation 110 ft / 34 m (AMSL)
Location 63.756565° -68.556058°
Runways 1
Magnetic Variation 27.545° W

METAR

CYFB 121400Z 32007KT 15SM -SN FEW025 OVC053 M15/M18 A2952 RMK SF1SC7 SLP003

Decode

TAF

TAF CYFB 121138Z 1212/1312 31008KT P6SM OVC050 TEMPO 1212/1218 VRB03KT P6SM -SN BKN020 OVC050 FM121800 VRB03KT P6SM BKN050 RMK NXT FCST BY 121800Z

Decode

Departure Runways

ID Width Length Bearing (true) Bearing (mag) Surface Threshold Offset Overrun Length
17 200 ft / 61 m 8,605 ft / 2,623 m 135.58° 163.12° Asphalt 0 ft / 0 m 210 ft / 64 m
35 200 ft / 61 m 8,605 ft / 2,623 m 315.62° 343.16° Asphalt 0 ft / 0 m 243 ft / 74 m

CYYR

Details ICAO CYYR (YYR)
Name Goose Bay
Region Canada
Timezone America/Goose_Bay (UTC-4.0)
Stats Elevation 160 ft / 49 m (AMSL)
Location 53.318820° -60.423890°
Runways 2
Magnetic Variation 20.964° W

METAR

CYYR 121400Z 26020G26KT 15SM DRSN SKC M19/M26 A3013 RMK SLP210

Decode

TAF

TAF CYYR 121130Z 1212/1312 25018KT P6SM SKC BECMG 1213/1215 25010KT FM122200 22005KT P6SM BKN200 BECMG 1300/1302 05005KT FM131100 05005KT P6SM -SN BKN030 OVC080 RMK NXT FCST BY 121800Z

Decode

Destination Runways

ID Width Length Bearing (true) Bearing (mag) Surface Threshold Offset Overrun Length
08 209 ft / 64 m 11,055 ft / 3,369 m 54.70° 75.66° Asphalt 0 ft / 0 m 1,000 ft / 305 m
16 200 ft / 61 m 9,515 ft / 2,900 m 132.96° 153.92° Asphalt 0 ft / 0 m 0 ft / 0 m
26 209 ft / 64 m 11,055 ft / 3,369 m 234.73° 255.69° Asphalt 0 ft / 0 m 1,000 ft / 305 m
34 200 ft / 61 m 9,515 ft / 2,900 m 312.99° 333.95° Asphalt 0 ft / 0 m 500 ft / 152 m

Popular Alternatives